sensor_id;sensor_type;location;lat;lon;timestamp;temperature;humidity
7461;DHT22;6757;52.258;12.840;2022-09-01T00:01:41;13.50;99.90
7461;DHT22;6757;52.258;12.840;2022-09-01T00:04:11;13.50;99.90
7461;DHT22;6757;52.258;12.840;2022-09-01T00:06:41;13.50;99.90
7461;DHT22;6757;52.258;12.840;2022-09-01T00:09:11;13.50;99.90
7461;DHT22;6757;52.258;12.840;2022-09-01T00:11:44;13.50;99.90
7461;DHT22;6757;52.258;12.840;2022-09-01T00:14:14;13.50;99.90
7461;DHT22;6757;52.258;12.840;2022-09-01T00:16:41;13.50;99.90
7461;DHT22;6757;52.258;12.840;2022-09-01T00:19:08;13.60;99.90
7461;DHT22;6757;52.258;12.840;2022-09-01T00:21:38;13.50;99.90
7461;DHT22;6757;52.258;12.840;2022-09-01T00:24:08;13.60;99.90
7461;DHT22;6757;52.258;12.840;2022-09-01T00:26:36;13.50;99.90
7461;DHT22;6757;52.258;12.840;2022-09-01T00:29:05;13.50;99.90
7461;DHT22;6757;52.258;12.840;2022-09-01T00:31:33;13.60;99.90
7461;DHT22;6757;52.258;12.840;2022-09-01T00:34:00;13.60;99.90
7461;DHT22;6757;52.258;12.840;2022-09-01T00:36:28;13.60;99.90
7461;DHT22;6757;52.258;12.840;2022-09-01T00:38:55;13.70;99.90
7461;DHT22;6757;52.258;12.840;2022-09-01T00:41:24;13.60;99.90
7461;DHT22;6757;52.258;12.840;2022-09-01T00:43:56;13.70;99.90
7461;DHT22;6757;52.258;12.840;2022-09-01T00:46:28;13.70;99.90
7461;DHT22;6757;52.258;12.840;2022-09-01T00:48:59;13.70;99.90
7461;DHT22;6757;52.258;12.840;2022-09-01T00:51:28;13.70;99.90
7461;DHT22;6757;52.258;12.840;2022-09-01T00:53:56;13.70;99.90
7461;DHT22;6757;52.258;12.840;2022-09-01T00:56:24;13.80;99.90
7461;DHT22;6757;52.258;12.840;2022-09-01T00:58:52;13.80;99.90
7461;DHT22;6757;52.258;12.840;2022-09-01T01:01:19;13.80;99.90
7461;DHT22;6757;52.258;12.840;2022-09-01T01:03:49;13.80;99.90
7461;DHT22;6757;52.258;12.840;2022-09-01T01:06:16;13.80;99.90
7461;DHT22;6757;52.258;12.840;2022-09-01T01:08:45;13.90;99.90
7461;DHT22;6757;52.258;12.840;2022-09-01T01:11:24;13.90;99.90
7461;DHT22;6757;52.258;12.840;2022-09-01T01:13:55;13.90;99.90
7461;DHT22;6757;52.258;12.840;2022-09-01T01:16:27;13.90;99.90
7461;DHT22;6757;52.258;12.840;2022-09-01T01:18:56;13.90;99.90
7461;DHT22;6757;52.258;12.840;2022-09-01T01:21:28;13.90;99.90
7461;DHT22;6757;52.258;12.840;2022-09-01T01:24:23;13.90;99.90
7461;DHT22;6757;52.258;12.840;2022-09-01T01:26:51;13.90;99.90
7461;DHT22;6757;52.258;12.840;2022-09-01T01:29:19;13.90;99.90
7461;DHT22;6757;52.258;12.840;2022-09-01T01:31:46;13.90;99.90
7461;DHT22;6757;52.258;12.840;2022-09-01T01:34:14;14.00;99.90
7461;DHT22;6757;52.258;12.840;2022-09-01T01:36:42;14.00;99.90
7461;DHT22;6757;52.258;12.840;2022-09-01T01:39:12;14.00;99.90
7461;DHT22;6757;52.258;12.840;2022-09-01T01:41:43;14.00;99.90
7461;DHT22;6757;52.258;12.840;2022-09-01T01:44:15;14.10;99.90
7461;DHT22;6757;52.258;12.840;2022-09-01T01:46:46;14.00;99.90
7461;DHT22;6757;52.258;12.840;2022-09-01T01:49:17;14.10;99.90
7461;DHT22;6757;52.258;12.840;2022-09-01T01:51:49;14.10;99.90
7461;DHT22;6757;52.258;12.840;2022-09-01T01:54:20;14.10;99.90
7461;DHT22;6757;52.258;12.840;2022-09-01T01:56:49;14.10;99.90
7461;DHT22;6757;52.258;12.840;2022-09-01T01:59:17;14.10;99.90
7461;DHT22;6757;52.258;12.840;2022-09-01T02:01:44;14.10;99.90
7461;DHT22;6757;52.258;12.840;2022-09-01T02:04:15;14.10;99.90
7461;DHT22;6757;52.258;12.840;2022-09-01T02:06:44;14.20;99.90
7461;DHT22;6757;52.258;12.840;2022-09-01T02:09:14;14.20;99.90
7461;DHT22;6757;52.258;12.840;2022-09-01T02:11:42;14.20;99.90
7461;DHT22;6757;52.258;12.840;2022-09-01T02:14:12;14.20;99.90
7461;DHT22;6757;52.258;12.840;2022-09-01T02:16:44;14.20;99.90
7461;DHT22;6757;52.258;12.840;2022-09-01T02:19:11;14.20;99.90
7461;DHT22;6757;52.258;12.840;2022-09-01T02:21:38;14.20;99.90
7461;DHT22;6757;52.258;12.840;2022-09-01T02:24:09;14.30;99.90
7461;DHT22;6757;52.258;12.840;2022-09-01T02:26:39;14.30;99.90
7461;DHT22;6757;52.258;12.840;2022-09-01T02:29:13;14.20;99.90
7461;DHT22;6757;52.258;12.840;2022-09-01T02:31:45;14.30;99.90
7461;DHT22;6757;52.258;12.840;2022-09-01T02:34:13;14.30;99.90
7461;DHT22;6757;52.258;12.840;2022-09-01T02:36:41;14.30;99.90
7461;DHT22;6757;52.258;12.840;2022-09-01T02:39:12;14.30;99.90
7461;DHT22;6757;52.258;12.840;2022-09-01T02:41:40;14.90;99.90
7461;DHT22;6757;52.258;12.840;2022-09-01T02:44:07;14.30;99.90
7461;DHT22;6757;52.258;12.840;2022-09-01T02:46:38;14.20;99.90
7461;DHT22;6757;52.258;12.840;2022-09-01T02:49:08;14.20;99.90
7461;DHT22;6757;52.258;12.840;2022-09-01T02:51:40;14.20;99.90
7461;DHT22;6757;52.258;12.840;2022-09-01T02:54:07;14.20;99.90
7461;DHT22;6757;52.258;12.840;2022-09-01T02:56:34;14.20;99.90
7461;DHT22;6757;52.258;12.840;2022-09-01T02:59:01;15.60;99.90
7461;DHT22;6757;52.258;12.840;2022-09-01T03:01:30;14.20;99.90
7461;DHT22;6757;52.258;12.840;2022-09-01T03:04:01;14.20;99.90
7461;DHT22;6757;52.258;12.840;2022-09-01T03:06:32;14.20;99.90
7461;DHT22;6757;52.258;12.840;2022-09-01T03:09:03;14.10;99.90
7461;DHT22;6757;52.258;12.840;2022-09-01T03:11:33;14.20;99.90
7461;DHT22;6757;52.258;12.840;2022-09-01T03:14:02;14.10;99.90
7461;DHT22;6757;52.258;12.840;2022-09-01T03:16:29;14.10;99.90
7461;DHT22;6757;52.258;12.840;2022-09-01T03:18:59;14.10;99.90
7461;DHT22;6757;52.258;12.840;2022-09-01T03:21:28;14.10;99.90
7461;DHT22;6757;52.258;12.840;2022-09-01T03:23:56;14.10;99.90
7461;DHT22;6757;52.258;12.840;2022-09-01T03:26:26;14.10;99.90
7461;DHT22;6757;52.258;12.840;2022-09-01T03:28:53;14.00;99.90
7461;DHT22;6757;52.258;12.840;2022-09-01T03:31:20;14.00;99.90
7461;DHT22;6757;52.258;12.840;2022-09-01T03:33:52;14.00;99.90
7461;DHT22;6757;52.258;12.840;2022-09-01T03:36:23;13.90;99.90
7461;DHT22;6757;52.258;12.840;2022-09-01T03:38:51;13.90;99.90
7461;DHT22;6757;52.258;12.840;2022-09-01T03:41:21;13.90;99.90
7461;DHT22;6757;52.258;12.840;2022-09-01T03:43:49;13.80;99.90
7461;DHT22;6757;52.258;12.840;2022-09-01T03:46:20;13.80;99.90
7461;DHT22;6757;52.258;12.840;2022-09-01T03:48:50;13.80;99.90
7461;DHT22;6757;52.258;12.840;2022-09-01T03:51:20;13.70;99.90
7461;DHT22;6757;52.258;12.840;2022-09-01T03:53:51;13.70;99.90
7461;DHT22;6757;52.258;12.840;2022-09-01T03:56:19;13.60;99.90
7461;DHT22;6757;52.258;12.840;2022-09-01T03:58:48;13.60;99.90
7461;DHT22;6757;52.258;12.840;2022-09-01T04:01:17;13.50;99.90
7461;DHT22;6757;52.258;12.840;2022-09-01T04:03:45;13.40;99.90
7461;DHT22;6757;52.258;12.840;2022-09-01T04:06:13;13.40;99.90
7461;DHT22;6757;52.258;12.840;2022-09-01T04:08:44;13.30;99.90
7461;DHT22;6757;52.258;12.840;2022-09-01T04:11:13;13.20;99.90
7461;DHT22;6757;52.258;12.840;2022-09-01T04:13:43;13.20;99.90
7461;DHT22;6757;52.258;12.840;2022-09-01T04:16:19;13.10;99.90
7461;DHT22;6757;52.258;12.840;2022-09-01T04:19:06;13.10;99.90
7461;DHT22;6757;52.258;12.840;2022-09-01T04:21:44;13.00;99.90
7461;DHT22;6757;52.258;12.840;2022-09-01T04:24:12;12.90;99.90
7461;DHT22;6757;52.258;12.840;2022-09-01T04:26:40;13.80;99.90
7461;DHT22;6757;52.258;12.840;2022-09-01T04:29:10;12.80;99.90
7461;DHT22;6757;52.258;12.840;2022-09-01T04:31:37;12.70;99.90
7461;DHT22;6757;52.258;12.840;2022-09-01T04:34:07;12.70;99.90
7461;DHT22;6757;52.258;12.840;2022-09-01T04:36:38;12.60;99.90
7461;DHT22;6757;52.258;12.840;2022-09-01T04:39:06;12.60;99.90
7461;DHT22;6757;52.258;12.840;2022-09-01T04:41:38;12.50;99.90
7461;DHT22;6757;52.258;12.840;2022-09-01T04:44:07;12.50;99.90
7461;DHT22;6757;52.258;12.840;2022-09-01T04:46:36;12.40;99.90
7461;DHT22;6757;52.258;12.840;2022-09-01T04:49:07;12.30;99.90
7461;DHT22;6757;52.258;12.840;2022-09-01T04:51:37;12.30;99.90
7461;DHT22;6757;52.258;12.840;2022-09-01T04:54:05;12.30;99.90
7461;DHT22;6757;52.258;12.840;2022-09-01T04:56:38;12.20;99.90
7461;DHT22;6757;52.258;12.840;2022-09-01T04:59:06;12.20;99.90
7461;DHT22;6757;52.258;12.840;2022-09-01T05:01:35;12.10;99.90
7461;DHT22;6757;52.258;12.840;2022-09-01T05:04:08;12.10;99.90
7461;DHT22;6757;52.258;12.840;2022-09-01T05:06:39;12.10;99.90
7461;DHT22;6757;52.258;12.840;2022-09-01T05:09:08;12.10;99.90
7461;DHT22;6757;52.258;12.840;2022-09-01T05:11:35;12.00;99.90
7461;DHT22;6757;52.258;12.840;2022-09-01T05:14:04;12.00;99.90
7461;DHT22;6757;52.258;12.840;2022-09-01T05:16:33;12.00;99.90
7461;DHT22;6757;52.258;12.840;2022-09-01T05:19:01;12.00;99.90
7461;DHT22;6757;52.258;12.840;2022-09-01T05:21:28;12.00;99.90
7461;DHT22;6757;52.258;12.840;2022-09-01T05:23:57;12.00;99.90
7461;DHT22;6757;52.258;12.840;2022-09-01T05:26:27;11.90;99.90
7461;DHT22;6757;52.258;12.840;2022-09-01T05:28:59;12.00;99.90
7461;DHT22;6757;52.258;12.840;2022-09-01T05:31:29;12.00;99.90
7461;DHT22;6757;52.258;12.840;2022-09-01T05:33:59;12.00;99.90
7461;DHT22;6757;52.258;12.840;2022-09-01T05:36:27;12.00;99.90
7461;DHT22;6757;52.258;12.840;2022-09-01T05:38:58;12.00;99.90
7461;DHT22;6757;52.258;12.840;2022-09-01T05:41:26;12.10;99.90
7461;DHT22;6757;52.258;12.840;2022-09-01T05:43:54;12.10;99.90
7461;DHT22;6757;52.258;12.840;2022-09-01T05:46:24;12.20;99.90
7461;DHT22;6757;52.258;12.840;2022-09-01T05:48:53;12.30;99.90
7461;DHT22;6757;52.258;12.840;2022-09-01T05:51:22;12.30;99.90
7461;DHT22;6757;52.258;12.840;2022-09-01T05:53:51;12.40;99.90
7461;DHT22;6757;52.258;12.840;2022-09-01T05:56:21;12.40;99.90
7461;DHT22;6757;52.258;12.840;2022-09-01T05:58:48;12.50;99.90
7461;DHT22;6757;52.258;12.840;2022-09-01T06:01:16;12.60;99.90
7461;DHT22;6757;52.258;12.840;2022-09-01T06:03:48;12.70;99.90
7461;DHT22;6757;52.258;12.840;2022-09-01T06:06:19;12.80;99.90
7461;DHT22;6757;52.258;12.840;2022-09-01T06:08:47;12.80;99.90
7461;DHT22;6757;52.258;12.840;2022-09-01T06:11:15;12.90;99.90
7461;DHT22;6757;52.258;12.840;2022-09-01T06:13:42;13.00;99.90
7461;DHT22;6757;52.258;12.840;2022-09-01T06:16:12;13.10;99.90
7461;DHT22;6757;52.258;12.840;2022-09-01T06:18:40;13.20;99.90
7461;DHT22;6757;52.258;12.840;2022-09-01T06:21:09;13.30;99.90
7461;DHT22;6757;52.258;12.840;2022-09-01T06:23:39;13.40;99.90
7461;DHT22;6757;52.258;12.840;2022-09-01T06:26:07;13.50;99.90
7461;DHT22;6757;52.258;12.840;2022-09-01T06:28:42;13.60;99.90
7461;DHT22;6757;52.258;12.840;2022-09-01T06:31:09;13.70;99.90
7461;DHT22;6757;52.258;12.840;2022-09-01T06:33:36;13.80;99.90
7461;DHT22;6757;52.258;12.840;2022-09-01T06:36:04;14.40;99.90
7461;DHT22;6757;52.258;12.840;2022-09-01T06:38:35;13.90;99.90
7461;DHT22;6757;52.258;12.840;2022-09-01T06:41:05;14.10;99.90
7461;DHT22;6757;52.258;12.840;2022-09-01T06:43:37;14.20;99.90
7461;DHT22;6757;52.258;12.840;2022-09-01T06:46:07;14.30;99.90
7461;DHT22;6757;52.258;12.840;2022-09-01T06:48:35;14.40;99.90
7461;DHT22;6757;52.258;12.840;2022-09-01T06:51:03;14.50;99.90
7461;DHT22;6757;52.258;12.840;2022-09-01T06:53:31;14.60;99.90
7461;DHT22;6757;52.258;12.840;2022-09-01T06:56:01;14.60;99.90
7461;DHT22;6757;52.258;12.840;2022-09-01T06:58:28;14.80;99.90
7461;DHT22;6757;52.258;12.840;2022-09-01T07:00:55;14.90;99.90
7461;DHT22;6757;52.258;12.840;2022-09-01T07:03:22;15.00;99.90
7461;DHT22;6757;52.258;12.840;2022-09-01T07:05:51;15.10;99.90
7461;DHT22;6757;52.258;12.840;2022-09-01T07:08:18;15.20;99.90
7461;DHT22;6757;52.258;12.840;2022-09-01T07:10:49;15.20;99.90
7461;DHT22;6757;52.258;12.840;2022-09-01T07:13:21;15.30;99.90
7461;DHT22;6757;52.258;12.840;2022-09-01T07:15:50;15.40;99.90
7461;DHT22;6757;52.258;12.840;2022-09-01T07:18:22;15.50;99.90
7461;DHT22;6757;52.258;12.840;2022-09-01T07:20:51;15.60;99.90
7461;DHT22;6757;52.258;12.840;2022-09-01T07:23:19;15.70;99.90
7461;DHT22;6757;52.258;12.840;2022-09-01T07:25:49;15.80;99.90
7461;DHT22;6757;52.258;12.840;2022-09-01T07:28:21;15.90;99.90
7461;DHT22;6757;52.258;12.840;2022-09-01T07:30:50;15.90;99.90
7461;DHT22;6757;52.258;12.840;2022-09-01T07:33:19;16.00;99.90
7461;DHT22;6757;52.258;12.840;2022-09-01T07:35:50;16.10;99.90
7461;DHT22;6757;52.258;12.840;2022-09-01T07:38:18;16.20;99.90
7461;DHT22;6757;52.258;12.840;2022-09-01T07:40:45;16.20;99.90
7461;DHT22;6757;52.258;12.840;2022-09-01T07:43:16;16.30;99.90
7461;DHT22;6757;52.258;12.840;2022-09-01T07:45:50;16.30;99.90
7461;DHT22;6757;52.258;12.840;2022-09-01T07:48:21;16.40;99.90
7461;DHT22;6757;52.258;12.840;2022-09-01T07:50:51;16.50;99.90
7461;DHT22;6757;52.258;12.840;2022-09-01T07:53:22;16.60;99.90
7461;DHT22;6757;52.258;12.840;2022-09-01T07:55:52;16.60;99.90
7461;DHT22;6757;52.258;12.840;2022-09-01T07:58:22;16.70;99.90
7461;DHT22;6757;52.258;12.840;2022-09-01T08:00:52;16.80;99.90
7461;DHT22;6757;52.258;12.840;2022-09-01T08:03:21;16.90;99.90
7461;DHT22;6757;52.258;12.840;2022-09-01T08:05:50;16.90;99.90
7461;DHT22;6757;52.258;12.840;2022-09-01T08:08:22;17.00;99.90
7461;DHT22;6757;52.258;12.840;2022-09-01T08:10:50;17.10;99.90
7461;DHT22;6757;52.258;12.840;2022-09-01T08:13:17;17.10;99.90
7461;DHT22;6757;52.258;12.840;2022-09-01T08:15:45;18.60;99.90
7461;DHT22;6757;52.258;12.840;2022-09-01T08:18:13;17.20;99.90
7461;DHT22;6757;52.258;12.840;2022-09-01T08:20:42;17.30;99.90
7461;DHT22;6757;52.258;12.840;2022-09-01T08:23:12;17.30;99.90
7461;DHT22;6757;52.258;12.840;2022-09-01T08:25:43;17.40;99.90
7461;DHT22;6757;52.258;12.840;2022-09-01T08:28:12;17.50;99.90
7461;DHT22;6757;52.258;12.840;2022-09-01T08:30:41;17.50;99.90
7461;DHT22;6757;52.258;12.840;2022-09-01T08:33:09;17.60;99.90
7461;DHT22;6757;52.258;12.840;2022-09-01T08:35:40;17.60;99.90
7461;DHT22;6757;52.258;12.840;2022-09-01T08:38:08;17.70;99.90
7461;DHT22;6757;52.258;12.840;2022-09-01T08:40:36;17.70;99.90
7461;DHT22;6757;52.258;12.840;2022-09-01T08:43:13;17.70;99.90
7461;DHT22;6757;52.258;12.840;2022-09-01T08:45:47;17.70;99.90
7461;DHT22;6757;52.258;12.840;2022-09-01T08:48:21;17.80;99.90
7461;DHT22;6757;52.258;12.840;2022-09-01T08:50:55;17.80;99.90
7461;DHT22;6757;52.258;12.840;2022-09-01T08:53:30;17.80;99.90
7461;DHT22;6757;52.258;12.840;2022-09-01T08:55:59;17.90;99.90
7461;DHT22;6757;52.258;12.840;2022-09-01T08:58:28;17.90;99.90
7461;DHT22;6757;52.258;12.840;2022-09-01T09:00:59;18.00;99.90
7461;DHT22;6757;52.258;12.840;2022-09-01T09:03:34;18.10;99.90
7461;DHT22;6757;52.258;12.840;2022-09-01T09:06:12;18.20;99.90
7461;DHT22;6757;52.258;12.840;2022-09-01T09:08:54;18.30;99.90
7461;DHT22;6757;52.258;12.840;2022-09-01T09:11:42;18.30;99.90
7461;DHT22;6757;52.258;12.840;2022-09-01T09:14:27;18.50;99.90
7461;DHT22;6757;52.258;12.840;2022-09-01T09:17:00;18.50;99.90
7461;DHT22;6757;52.258;12.840;2022-09-01T09:19:30;18.60;99.90
7461;DHT22;6757;52.258;12.840;2022-09-01T09:22:03;18.60;99.90
7461;DHT22;6757;52.258;12.840;2022-09-01T09:24:34;18.60;99.90
7461;DHT22;6757;52.258;12.840;2022-09-01T09:27:17;18.60;99.90
7461;DHT22;6757;52.258;12.840;2022-09-01T09:29:47;18.60;99.90
7461;DHT22;6757;52.258;12.840;2022-09-01T09:32:15;18.60;99.90
7461;DHT22;6757;52.258;12.840;2022-09-01T09:34:42;18.60;99.90
7461;DHT22;6757;52.258;12.840;2022-09-01T09:37:20;18.60;99.90
7461;DHT22;6757;52.258;12.840;2022-09-01T09:40:07;18.60;99.90
7461;DHT22;6757;52.258;12.840;2022-09-01T09:42:36;18.60;99.90
7461;DHT22;6757;52.258;12.840;2022-09-01T09:45:06;18.70;99.90
7461;DHT22;6757;52.258;12.840;2022-09-01T09:47:45;18.70;99.90
7461;DHT22;6757;52.258;12.840;2022-09-01T09:50:24;18.70;99.90
7461;DHT22;6757;52.258;12.840;2022-09-01T09:53:14;18.80;99.90
7461;DHT22;6757;52.258;12.840;2022-09-01T09:55:57;18.80;99.90
7461;DHT22;6757;52.258;12.840;2022-09-01T09:58:28;18.90;99.90
7461;DHT22;6757;52.258;12.840;2022-09-01T10:01:03;20.20;99.90
7461;DHT22;6757;52.258;12.840;2022-09-01T10:03:41;19.10;99.90
7461;DHT22;6757;52.258;12.840;2022-09-01T10:06:11;19.10;99.90
7461;DHT22;6757;52.258;12.840;2022-09-01T10:08:42;19.20;99.90
7461;DHT22;6757;52.258;12.840;2022-09-01T10:11:24;19.30;99.90
7461;DHT22;6757;52.258;12.840;2022-09-01T10:13:54;19.30;99.90
7461;DHT22;6757;52.258;12.840;2022-09-01T10:16:25;19.50;99.90
7461;DHT22;6757;52.258;12.840;2022-09-01T10:18:56;19.50;99.90
7461;DHT22;6757;52.258;12.840;2022-09-01T10:21:26;19.60;99.90
7461;DHT22;6757;52.258;12.840;2022-09-01T10:23:58;19.60;99.90
7461;DHT22;6757;52.258;12.840;2022-09-01T10:26:29;19.70;99.90
7461;DHT22;6757;52.258;12.840;2022-09-01T10:29:05;19.60;99.90
7461;DHT22;6757;52.258;12.840;2022-09-01T10:31:33;19.60;99.90
7461;DHT22;6757;52.258;12.840;2022-09-01T10:34:02;19.60;99.90
7461;DHT22;6757;52.258;12.840;2022-09-01T10:36:31;19.60;99.90
7461;DHT22;6757;52.258;12.840;2022-09-01T10:39:00;19.60;99.90
7461;DHT22;6757;52.258;12.840;2022-09-01T10:41:45;19.60;99.90
7461;DHT22;6757;52.258;12.840;2022-09-01T10:44:18;19.60;99.90
7461;DHT22;6757;52.258;12.840;2022-09-01T10:46:50;19.70;99.90
7461;DHT22;6757;52.258;12.840;2022-09-01T10:52:53;19.80;99.90
7461;DHT22;6757;52.258;12.840;2022-09-01T10:55:34;19.70;99.90
7461;DHT22;6757;52.258;12.840;2022-09-01T10:58:29;19.70;99.90
7461;DHT22;6757;52.258;12.840;2022-09-01T11:01:01;19.80;99.90
7461;DHT22;6757;52.258;12.840;2022-09-01T11:03:58;19.90;99.90
7461;DHT22;6757;52.258;12.840;2022-09-01T11:06:42;19.90;99.90
7461;DHT22;6757;52.258;12.840;2022-09-01T11:09:21;20.10;99.90
7461;DHT22;6757;52.258;12.840;2022-09-01T11:14:54;20.30;99.60
7461;DHT22;6757;52.258;12.840;2022-09-01T11:17:23;20.40;98.90
7461;DHT22;6757;52.258;12.840;2022-09-01T11:19:58;20.50;98.40
7461;DHT22;6757;52.258;12.840;2022-09-01T11:22:33;20.50;98.00
7461;DHT22;6757;52.258;12.840;2022-09-01T11:28:37;20.50;97.70
7461;DHT22;6757;52.258;12.840;2022-09-01T11:34:14;20.30;97.00
7461;DHT22;6757;52.258;12.840;2022-09-01T11:36:55;20.40;96.90
7461;DHT22;6757;52.258;12.840;2022-09-01T11:39:32;20.40;96.40
7461;DHT22;6757;52.258;12.840;2022-09-01T11:42:04;20.50;96.10
7461;DHT22;6757;52.258;12.840;2022-09-01T11:44:39;20.60;95.50
7461;DHT22;6757;52.258;12.840;2022-09-01T11:47:11;20.80;95.10
7461;DHT22;6757;52.258;12.840;2022-09-01T11:49:48;20.90;94.50
7461;DHT22;6757;52.258;12.840;2022-09-01T11:52:19;21.00;94.10
7461;DHT22;6757;52.258;12.840;2022-09-01T11:54:48;21.00;93.80
7461;DHT22;6757;52.258;12.840;2022-09-01T11:57:17;21.60;94.00
7461;DHT22;6757;52.258;12.840;2022-09-01T11:59:48;21.00;93.80
7461;DHT22;6757;52.258;12.840;2022-09-01T12:02:20;21.10;93.80
7461;DHT22;6757;52.258;12.840;2022-09-01T12:04:50;21.20;94.00
7461;DHT22;6757;52.258;12.840;2022-09-01T12:07:40;21.30;93.70
7461;DHT22;6757;52.258;12.840;2022-09-01T12:10:14;21.40;93.20
7461;DHT22;6757;52.258;12.840;2022-09-01T12:12:45;21.50;93.20
7461;DHT22;6757;52.258;12.840;2022-09-01T12:15:21;21.70;93.10
7461;DHT22;6757;52.258;12.840;2022-09-01T12:17:49;21.90;92.80
7461;DHT22;6757;52.258;12.840;2022-09-01T12:20:22;22.00;92.50
7461;DHT22;6757;52.258;12.840;2022-09-01T12:22:52;22.10;92.30
7461;DHT22;6757;52.258;12.840;2022-09-01T12:25:22;22.10;92.00
7461;DHT22;6757;52.258;12.840;2022-09-01T12:27:51;22.00;92.00
7461;DHT22;6757;52.258;12.840;2022-09-01T12:30:21;22.00;92.00
7461;DHT22;6757;52.258;12.840;2022-09-01T12:32:49;21.90;91.90
7461;DHT22;6757;52.258;12.840;2022-09-01T12:35:19;22.50;92.10
7461;DHT22;6757;52.258;12.840;2022-09-01T12:37:47;21.90;92.00
7461;DHT22;6757;52.258;12.840;2022-09-01T12:40:23;21.90;92.10
7461;DHT22;6757;52.258;12.840;2022-09-01T12:42:52;21.90;92.10
7461;DHT22;6757;52.258;12.840;2022-09-01T12:45:41;22.00;92.20
7461;DHT22;6757;52.258;12.840;2022-09-01T12:48:23;22.20;91.90
7461;DHT22;6757;52.258;12.840;2022-09-01T12:50:54;22.40;91.40
7461;DHT22;6757;52.258;12.840;2022-09-01T12:53:27;22.60;91.10
7461;DHT22;6757;52.258;12.840;2022-09-01T12:56:09;22.70;91.00
7461;DHT22;6757;52.258;12.840;2022-09-01T12:58:46;22.90;90.80
7461;DHT22;6757;52.258;12.840;2022-09-01T13:01:31;23.10;90.40
7461;DHT22;6757;52.258;12.840;2022-09-01T13:04:23;23.30;89.80
7461;DHT22;6757;52.258;12.840;2022-09-01T13:06:53;23.30;88.70
7461;DHT22;6757;52.258;12.840;2022-09-01T13:09:22;23.30;87.80
7461;DHT22;6757;52.258;12.840;2022-09-01T13:11:49;23.20;87.10
7461;DHT22;6757;52.258;12.840;2022-09-01T13:14:16;23.20;86.80
7461;DHT22;6757;52.258;12.840;2022-09-01T13:16:44;23.10;86.40
7461;DHT22;6757;52.258;12.840;2022-09-01T13:19:11;23.00;86.20
7461;DHT22;6757;52.258;12.840;2022-09-01T13:21:38;22.90;86.30
7461;DHT22;6757;52.258;12.840;2022-09-01T13:24:06;22.90;86.20
7461;DHT22;6757;52.258;12.840;2022-09-01T13:26:33;22.80;85.80
7461;DHT22;6757;52.258;12.840;2022-09-01T13:29:00;23.00;85.80
7461;DHT22;6757;52.258;12.840;2022-09-01T13:31:27;22.90;85.40
7461;DHT22;6757;52.258;12.840;2022-09-01T13:33:57;23.20;85.10
7461;DHT22;6757;52.258;12.840;2022-09-01T13:36:24;23.80;84.50
7461;DHT22;6757;52.258;12.840;2022-09-01T13:38:51;24.50;82.00
7461;DHT22;6757;52.258;12.840;2022-09-01T13:41:18;25.30;80.30
7461;DHT22;6757;52.258;12.840;2022-09-01T13:43:45;25.90;78.70
7461;DHT22;6757;52.258;12.840;2022-09-01T13:46:12;26.50;77.20
7461;DHT22;6757;52.258;12.840;2022-09-01T13:48:40;27.20;75.90
7461;DHT22;6757;52.258;12.840;2022-09-01T13:51:08;28.00;74.40
7461;DHT22;6757;52.258;12.840;2022-09-01T13:53:35;28.60;72.00
7461;DHT22;6757;52.258;12.840;2022-09-01T13:56:04;29.00;69.30
7461;DHT22;6757;52.258;12.840;2022-09-01T13:58:31;29.40;67.30
7461;DHT22;6757;52.258;12.840;2022-09-01T14:00:58;29.80;65.90
7461;DHT22;6757;52.258;12.840;2022-09-01T14:03:25;30.20;64.90
7461;DHT22;6757;52.258;12.840;2022-09-01T14:05:52;30.60;64.40
7461;DHT22;6757;52.258;12.840;2022-09-01T14:08:21;30.70;63.50
7461;DHT22;6757;52.258;12.840;2022-09-01T14:10:50;30.50;62.20
7461;DHT22;6757;52.258;12.840;2022-09-01T14:13:18;30.60;62.10
7461;DHT22;6757;52.258;12.840;2022-09-01T14:15:47;29.40;61.70
7461;DHT22;6757;52.258;12.840;2022-09-01T14:18:14;29.00;62.30
7461;DHT22;6757;52.258;12.840;2022-09-01T14:20:44;29.10;62.70
7461;DHT22;6757;52.258;12.840;2022-09-01T14:23:12;29.20;62.20
7461;DHT22;6757;52.258;12.840;2022-09-01T14:25:47;29.50;61.60
7461;DHT22;6757;52.258;12.840;2022-09-01T14:28:15;30.00;61.10
7461;DHT22;6757;52.258;12.840;2022-09-01T14:30:42;30.50;60.00
7461;DHT22;6757;52.258;12.840;2022-09-01T14:33:11;30.80;58.40
7461;DHT22;6757;52.258;12.840;2022-09-01T14:35:40;31.10;57.80
7461;DHT22;6757;52.258;12.840;2022-09-01T14:38:08;30.60;57.00
7461;DHT22;6757;52.258;12.840;2022-09-01T14:40:36;30.60;56.70
7461;DHT22;6757;52.258;12.840;2022-09-01T14:43:07;30.80;56.40
7461;DHT22;6757;52.258;12.840;2022-09-01T14:45:37;31.00;55.80
7461;DHT22;6757;52.258;12.840;2022-09-01T14:48:04;31.30;55.30
7461;DHT22;6757;52.258;12.840;2022-09-01T14:50:31;31.60;54.70
7461;DHT22;6757;52.258;12.840;2022-09-01T14:53:00;32.00;54.10
7461;DHT22;6757;52.258;12.840;2022-09-01T14:55:29;32.20;53.50
7461;DHT22;6757;52.258;12.840;2022-09-01T14:57:57;32.40;52.80
7461;DHT22;6757;52.258;12.840;2022-09-01T15:00:27;32.70;52.20
7461;DHT22;6757;52.258;12.840;2022-09-01T15:02:56;32.90;51.90
7461;DHT22;6757;52.258;12.840;2022-09-01T15:05:23;33.00;51.40
7461;DHT22;6757;52.258;12.840;2022-09-01T15:07:51;33.10;51.00
7461;DHT22;6757;52.258;12.840;2022-09-01T15:10:24;33.10;50.40
7461;DHT22;6757;52.258;12.840;2022-09-01T15:12:53;33.00;50.10
7461;DHT22;6757;52.258;12.840;2022-09-01T15:15:21;33.10;50.00
7461;DHT22;6757;52.258;12.840;2022-09-01T15:17:50;33.10;49.90
7461;DHT22;6757;52.258;12.840;2022-09-01T15:20:17;33.10;49.80
7461;DHT22;6757;52.258;12.840;2022-09-01T15:23:02;33.00;49.50
7461;DHT22;6757;52.258;12.840;2022-09-01T15:25:29;33.10;49.20
7461;DHT22;6757;52.258;12.840;2022-09-01T15:27:56;33.10;49.20
7461;DHT22;6757;52.258;12.840;2022-09-01T15:30:23;33.00;49.20
7461;DHT22;6757;52.258;12.840;2022-09-01T15:32:52;32.80;48.90
7461;DHT22;6757;52.258;12.840;2022-09-01T15:35:20;32.70;48.80
7461;DHT22;6757;52.258;12.840;2022-09-01T15:37:48;32.60;48.70
7461;DHT22;6757;52.258;12.840;2022-09-01T15:40:17;32.40;48.50
7461;DHT22;6757;52.258;12.840;2022-09-01T15:42:45;32.20;48.60
7461;DHT22;6757;52.258;12.840;2022-09-01T15:45:14;32.10;48.50
7461;DHT22;6757;52.258;12.840;2022-09-01T15:47:42;31.90;48.70
7461;DHT22;6757;52.258;12.840;2022-09-01T15:50:13;32.40;49.40
7461;DHT22;6757;52.258;12.840;2022-09-01T15:52:47;32.10;49.40
7461;DHT22;6757;52.258;12.840;2022-09-01T15:55:17;31.50;49.10
7461;DHT22;6757;52.258;12.840;2022-09-01T15:57:45;31.30;49.10
7461;DHT22;6757;52.258;12.840;2022-09-01T16:00:13;31.30;49.50
7461;DHT22;6757;52.258;12.840;2022-09-01T16:02:41;31.30;49.60
7461;DHT22;6757;52.258;12.840;2022-09-01T16:05:09;31.20;49.70
7461;DHT22;6757;52.258;12.840;2022-09-01T16:07:38;31.10;49.50
7461;DHT22;6757;52.258;12.840;2022-09-01T16:10:06;31.00;49.60
7461;DHT22;6757;52.258;12.840;2022-09-01T16:12:37;30.90;49.70
7461;DHT22;6757;52.258;12.840;2022-09-01T16:15:09;30.70;49.70
7461;DHT22;6757;52.258;12.840;2022-09-01T16:18:06;30.50;49.80
7461;DHT22;6757;52.258;12.840;2022-09-01T16:20:47;30.30;50.00